createdAt,value
2022-09-21T10:02:59.832Z,28.30
2022-09-21T10:05:35.593Z,28.70
2022-09-21T10:08:03.315Z,29.40
2022-09-21T10:10:41.348Z,30.00
2022-09-21T10:13:25.800Z,30.50
2022-09-21T10:15:56.225Z,30.70
2022-09-21T10:18:59.308Z,30.70
2022-09-21T10:21:35.135Z,31.00
2022-09-21T10:24:26.325Z,31.00
2022-09-21T10:27:05.399Z,31.20
2022-09-21T10:29:43.418Z,31.70
2022-09-21T10:32:15.308Z,32.40
2022-09-21T10:35:10.585Z,32.80
2022-09-21T10:37:42.568Z,33.20
2022-09-21T10:40:23.100Z,33.30
2022-09-21T10:42:55.131Z,33.10
2022-09-21T10:45:33.110Z,32.40
2022-09-21T10:48:17.872Z,32.50
2022-09-21T10:50:51.332Z,33.40
2022-09-21T10:53:29.509Z,33.90
2022-09-21T10:56:19.356Z,34.40
2022-09-21T10:59:31.313Z,34.80
2022-09-21T11:02:01.716Z,35.20
2022-09-21T11:04:54.202Z,35.70
2022-09-21T11:07:34.391Z,35.90
2022-09-21T11:10:34.603Z,35.80
2022-09-21T11:13:29.361Z,35.30
2022-09-21T11:16:10.978Z,35.30
2022-09-21T11:18:54.329Z,35.40
2022-09-21T11:22:20.673Z,34.60
2022-09-21T11:25:12.080Z,32.40
2022-09-21T11:27:49.524Z,30.50
2022-09-21T11:30:19.722Z,29.20
2022-09-21T11:33:15.611Z,28.60
2022-09-21T11:36:07.403Z,28.00
2022-09-21T11:39:11.688Z,29.10
2022-09-21T11:42:20.680Z,31.40
2022-09-21T11:45:18.075Z,33.10
2022-09-21T11:48:38.596Z,34.40
2022-09-21T11:51:25.674Z,35.10
2022-09-21T11:54:29.495Z,35.70
2022-09-21T11:57:22.776Z,36.20
2022-09-21T12:00:34.318Z,36.30
2022-09-21T12:03:32.556Z,36.60
2022-09-21T12:06:29.412Z,37.10
2022-09-21T12:09:26.875Z,36.60
2022-09-21T12:12:43.565Z,34.40
2022-09-21T12:15:36.192Z,31.70
2022-09-21T12:18:31.362Z,30.10
2022-09-21T12:21:13.297Z,31.00
2022-09-21T12:23:46.836Z,32.30
2022-09-21T12:26:19.683Z,33.20
2022-09-21T12:29:21.958Z,32.70
2022-09-21T12:32:24.098Z,31.00
2022-09-21T12:35:08.482Z,30.70
2022-09-21T12:37:47.591Z,31.30
2022-09-21T12:40:42.674Z,32.20
2022-09-21T12:43:26.714Z,33.00
2022-09-21T12:46:05.860Z,33.50
2022-09-21T12:48:39.751Z,34.20
2022-09-21T12:51:26.298Z,34.80
2022-09-21T12:54:01.799Z,35.20
2022-09-21T12:56:46.838Z,35.60
2022-09-21T12:59:55.085Z,35.80
2022-09-21T13:03:25.013Z,34.60
2022-09-21T13:06:14.985Z,32.70
2022-09-21T13:08:47.186Z,32.50
2022-09-21T13:11:21.548Z,33.10
2022-09-21T13:13:56.809Z,34.00
2022-09-21T13:16:40.504Z,34.70
2022-09-21T13:19:14.222Z,35.10
2022-09-21T13:21:42.941Z,35.20
2022-09-21T13:24:31.305Z,35.30
2022-09-21T13:27:02.812Z,35.40
2022-09-21T13:29:40.952Z,34.50
2022-09-21T13:32:14.702Z,32.50
2022-09-21T13:34:51.111Z,31.60
2022-09-21T13:37:28.423Z,32.10
2022-09-21T13:40:01.735Z,32.40
2022-09-21T13:42:35.052Z,32.00
2022-09-21T13:45:24.367Z,32.10
2022-09-21T13:47:59.114Z,32.80
2022-09-21T13:50:42.804Z,33.80
2022-09-21T13:53:25.673Z,34.30
2022-09-21T13:56:01.358Z,34.40
2022-09-21T13:58:46.844Z,34.40
2022-09-21T14:01:46.920Z,34.40
2022-09-21T14:04:37.320Z,34.50
2022-09-21T14:07:07.741Z,34.70
2022-09-21T14:09:58.274Z,34.90
2022-09-21T14:12:33.955Z,34.60
2022-09-21T14:15:23.270Z,34.50
2022-09-21T14:18:16.692Z,34.60
2022-09-21T14:21:17.423Z,34.40
2022-09-21T14:24:16.722Z,34.10
2022-09-21T14:26:44.144Z,33.30
2022-09-21T14:29:45.178Z,31.80
2022-09-21T14:32:25.666Z,30.50
2022-09-21T14:35:02.114Z,29.60
2022-09-21T14:37:36.883Z,29.30
2022-09-21T14:40:26.132Z,29.30
2022-09-21T14:42:55.703Z,29.80
2022-09-21T14:45:59.337Z,30.50
2022-09-21T14:48:43.688Z,31.00
2022-09-21T14:51:38.473Z,31.60
2022-09-21T14:54:24.292Z,32.00
2022-09-21T14:57:11.067Z,32.10
2022-09-21T15:00:14.542Z,31.40
2022-09-21T15:02:45.013Z,30.20
2022-09-21T15:05:18.088Z,28.60
2022-09-21T15:08:25.477Z,27.60
2022-09-21T15:11:16.364Z,27.30
2022-09-21T15:14:14.313Z,27.30
2022-09-21T15:16:44.154Z,27.10
2022-09-21T15:19:19.308Z,26.50
2022-09-21T15:21:52.120Z,25.70
2022-09-21T15:24:33.237Z,24.90
2022-09-21T15:27:15.072Z,24.00
2022-09-21T15:29:53.841Z,23.30
2022-09-21T15:32:42.065Z,22.60
2022-09-21T15:35:25.192Z,22.20
2022-09-21T15:37:52.867Z,21.70
2022-09-21T15:40:29.036Z,21.40
2022-09-21T15:43:12.289Z,21.20
2022-09-21T15:46:05.854Z,20.90
2022-09-21T15:48:37.013Z,20.70
2022-09-21T15:51:24.839Z,20.50
2022-09-21T15:54:33.857Z,20.30
2022-09-21T15:57:25.557Z,20.10
